Time;durP1;ratioP1;P1;durP2;ratioP2;P2;SDS_P1;SDS_P2;PMS_P1;PMS_P2;Temp;Humidity;BMP_temperature;BMP_pressure;BME280_temperature;BME280_humidity;BME280_pressure;Samples;Min_cycle;Max_cycle;Signal;HPM_P1;HPM_P2
2022/06/11 00:02:13;;;;;;;15.07;7.12;;;;;;;22.56;52.73;98740.44;4486287;31;20108;-81
2022/06/11 00:04:41;;;;;;;12.25;6.20;;;;;;;22.63;52.61;98740.66;4475417;31;20124;-81
2022/06/11 00:07:11;;;;;;;14.02;6.10;;;;;;;22.28;53.18;98729.91;4487478;31;20102;-79
2022/06/11 00:09:36;;;;;;;11.50;5.95;;;;;;;22.55;52.71;98734.22;4492229;31;20085;-80
2022/06/11 00:12:03;;;;;;;12.82;6.40;;;;;;;22.51;52.49;98732.06;4487754;31;20119;-80
2022/06/11 00:14:30;;;;;;;12.55;6.28;;;;;;;22.51;52.42;98729.38;4488599;31;20080;-80
2022/06/11 00:16:56;;;;;;;12.32;6.32;;;;;;;22.57;52.47;98728.72;4496389;31;20476;-80
2022/06/11 00:19:22;;;;;;;12.60;6.62;;;;;;;22.66;51.98;98729.59;4488483;31;20148;-79
2022/06/11 00:21:50;;;;;;;12.05;6.82;;;;;;;22.32;52.80;98738.50;4489200;31;20096;-80
2022/06/11 00:24:17;;;;;;;13.73;6.25;;;;;;;22.44;52.50;98741.75;4503552;31;20088;-80
2022/06/11 00:26:44;;;;;;;12.77;6.70;;;;;;;22.43;52.43;98740.91;4503811;31;20084;-81
2022/06/11 00:29:11;;;;;;;12.23;6.15;;;;;;;22.49;52.34;98737.56;4503259;31;20424;-81
2022/06/11 00:31:36;;;;;;;14.60;6.65;;;;;;;22.56;52.19;98744.00;4503694;31;20093;-81
2022/06/11 00:34:02;;;;;;;12.88;6.75;;;;;;;22.60;52.08;98736.47;4499482;31;20115;-80
2022/06/11 00:36:28;;;;;;;12.48;6.80;;;;;;;22.60;52.09;98735.59;4487819;31;20368;-81
2022/06/11 00:38:54;;;;;;;12.77;6.87;;;;;;;22.58;52.27;98743.84;4487360;31;20088;-80
2022/06/11 00:41:22;;;;;;;12.32;6.32;;;;;;;22.46;52.38;98742.41;4487781;31;20092;-80
2022/06/11 00:43:48;;;;;;;13.77;6.65;;;;;;;22.53;52.21;98744.28;4486006;32;20111;-81
2022/06/11 00:46:44;;;;;;;12.68;6.80;;;;;;;22.35;52.85;98744.37;4487514;31;20088;-80
2022/06/11 00:49:51;;;;;;;12.00;6.25;;;;;;;22.51;52.50;98740.94;4485852;32;20134;-81
2022/06/11 00:52:24;;;;;;;14.38;6.80;;;;;;;22.55;52.57;98744.13;4473600;31;20507;-80
2022/06/11 00:55:21;;;;;;;13.48;6.30;;;;;;;22.57;52.33;98742.13;4485889;32;20515;-80
2022/06/11 00:57:50;;;;;;;13.02;6.50;;;;;;;22.40;52.47;98743.06;4486313;32;20085;-81
2022/06/11 01:00:29;;;;;;;13.40;6.35;;;;;;;22.37;52.49;98738.88;4485900;32;20096;-80
2022/06/11 01:02:55;;;;;;;13.45;6.47;;;;;;;22.28;52.28;98739.81;4486427;32;20503;-80
2022/06/11 01:05:28;;;;;;;13.02;6.32;;;;;;;22.15;52.54;98740.22;4487010;31;20080;-81
2022/06/11 01:08:19;;;;;;;15.15;6.53;;;;;;;22.26;52.36;98745.34;4487500;31;20157;-81
2022/06/11 01:11:09;;;;;;;13.25;6.68;;;;;;;22.33;52.21;98746.41;4485696;32;20600;-81
2022/06/11 01:13:47;;;;;;;12.40;6.10;;;;;;;22.29;52.29;98739.66;4483619;31;110917;-81
2022/06/11 01:16:31;;;;;;;13.27;6.78;;;;;;;22.12;52.61;98738.69;4486083;32;20096;-81
2022/06/11 01:19:15;;;;;;;11.98;6.18;;;;;;;22.25;52.32;98746.34;4486726;32;20088;-78
2022/06/11 01:21:45;;;;;;;11.98;5.82;;;;;;;22.24;52.23;98741.13;4487128;32;20115;-81
2022/06/11 01:24:21;;;;;;;12.95;6.05;;;;;;;22.05;52.86;98744.84;4487209;32;20110;-81
2022/06/11 01:26:56;;;;;;;11.70;6.25;;;;;;;22.19;52.23;98752.31;4487081;31;20111;-81
2022/06/11 01:29:49;;;;;;;12.30;6.75;;;;;;;22.13;52.34;98751.09;4487234;32;20080;-81
2022/06/11 01:32:33;;;;;;;14.48;6.95;;;;;;;22.22;52.09;98752.00;4487158;31;20080;-80
2022/06/11 01:35:13;;;;;;;13.13;6.72;;;;;;;22.21;51.98;98752.97;4496755;31;20107;-80
2022/06/11 01:38:03;;;;;;;12.93;6.45;;;;;;;22.13;52.17;98756.47;4502769;31;20140;-80
2022/06/11 01:40:44;;;;;;;14.80;7.05;;;;;;;22.22;52.08;98751.16;4488970;31;20080;-81
2022/06/11 01:43:28;;;;;;;13.62;6.53;;;;;;;22.14;52.10;98755.47;4485118;31;20084;-78
2022/06/11 01:45:55;;;;;;;11.38;6.05;;;;;;;22.01;52.53;98749.69;4489152;31;20121;-81
2022/06/11 01:48:25;;;;;;;12.73;6.35;;;;;;;21.99;52.12;98755.19;4503367;31;20107;-79
2022/06/11 01:51:13;;;;;;;12.13;6.30;;;;;;;22.12;51.78;98764.69;4488952;31;20080;-78
2022/06/11 01:53:44;;;;;;;11.88;6.72;;;;;;;22.05;51.82;98760.94;4488337;31;20096;-78
2022/06/11 01:56:36;;;;;;;12.00;6.25;;;;;;;21.86;52.11;98762.00;4503259;31;20088;-79
2022/06/11 01:59:08;;;;;;;11.75;5.72;;;;;;;21.96;51.89;98765.41;4503184;31;20541;-79
2022/06/11 02:01:45;;;;;;;14.32;6.00;;;;;;;;;;4488641;31;20088;-79
2022/06/11 02:04:44;;;;;;;12.73;6.37;;;;;;;21.76;52.28;98757.56;4503264;31;20114;-80
2022/06/11 02:07:19;;;;;;;;;;;;;;;21.62;52.98;98768.84;4475926;31;20107;-78
2022/06/11 02:09:59;;;;;;;12.05;6.28;;;;;;;21.76;52.44;98760.22;4503062;31;19964;-80
2022/06/11 02:12:34;;;;;;;11.55;6.07;;;;;;;21.77;52.37;98763.78;4488654;31;20419;-79
2022/06/11 02:15:05;;;;;;;12.18;5.87;;;;;;;21.76;52.29;98772.81;4488493;31;20092;-79
2022/06/11 02:17:36;;;;;;;13.35;6.12;;;;;;;21.67;52.58;98768.38;4503024;31;20241;-79
2022/06/11 02:20:04;;;;;;;12.95;5.87;;;;;;;21.59;52.60;98761.97;4488597;31;20468;-79
2022/06/11 02:22:52;;;;;;;14.63;5.97;;;;;;;21.66;52.39;98762.16;4502870;31;20107;-79
2022/06/11 02:25:21;;;;;;;12.07;6.55;;;;;;;21.60;52.42;98766.31;4488630;31;20127;-79
2022/06/11 02:27:48;;;;;;;12.57;5.43;;;;;;;21.50;52.64;98768.25;4488454;31;20138;-79
2022/06/11 02:30:18;;;;;;;12.60;5.43;;;;;;;21.61;52.27;98769.81;4487414;31;20162;-79
2022/06/11 02:32:44;;;;;;;12.07;5.57;;;;;;;21.71;52.05;98775.97;4488577;31;20128;-79
2022/06/11 02:35:12;;;;;;;13.02;5.75;;;;;;;21.47;52.62;98778.44;4502764;31;20435;-79
2022/06/11 02:37:45;;;;;;;11.70;5.90;;;;;;;21.40;53.10;98770.09;4488738;31;20096;-79
2022/06/11 02:40:20;;;;;;;12.68;6.00;;;;;;;21.53;52.92;98772.44;4488405;31;20447;-79
2022/06/11 02:42:46;;;;;;;13.52;5.47;;;;;;;21.35;53.48;98780.47;4488435;31;20076;-79
2022/06/11 02:45:13;;;;;;;12.15;5.68;;;;;;;21.41;53.25;98774.50;4488460;31;20127;-79
2022/06/11 02:47:40;;;;;;;11.88;5.60;;;;;;;21.50;52.98;98780.78;4488670;31;20493;-79
2022/06/11 02:50:07;;;;;;;11.85;5.53;;;;;;;21.43;52.98;98772.50;4488595;31;20438;-79
2022/06/11 02:52:33;;;;;;;11.30;5.72;;;;;;;21.63;52.45;98783.09;4488285;31;20131;-79
2022/06/11 02:54:59;;;;;;;12.70;6.10;;;;;;;21.55;52.63;98786.53;4502750;31;20084;-77
2022/06/11 02:57:29;;;;;;;12.15;6.20;;;;;;;21.59;52.60;98794.13;4488354;31;20123;-78
2022/06/11 02:59:55;;;;;;;12.63;6.15;;;;;;;21.52;52.91;98784.19;4502773;31;20103;-79
2022/06/11 03:02:21;;;;;;;13.73;6.05;;;;;;;21.59;52.78;98791.44;4488402;31;20084;-79
2022/06/11 03:04:48;;;;;;;13.88;6.70;;;;;;;21.59;53.07;98798.63;4488373;31;20100;-79
2022/06/11 03:07:13;;;;;;;12.25;5.95;;;;;;;21.47;53.36;98791.81;4502565;31;20715;-79
2022/06/11 03:09:41;;;;;;;11.05;5.78;;;;;;;21.41;53.32;98791.41;4502441;31;20144;-79
2022/06/11 03:12:08;;;;;;;12.48;6.00;;;;;;;21.34;53.49;98781.44;4502278;31;20148;-78
2022/06/11 03:14:33;;;;;;;12.13;6.53;;;;;;;21.36;53.41;98787.50;4487861;31;20103;-80
2022/06/11 03:16:59;;;;;;;12.73;6.43;;;;;;;21.33;53.42;98788.66;4502289;31;20367;-79
2022/06/11 03:19:24;;;;;;;12.48;6.40;;;;;;;21.36;53.22;98795.53;4487866;31;20124;-80
2022/06/11 03:21:54;;;;;;;13.90;6.45;;;;;;;21.53;52.74;98786.69;4502161;31;20076;-80
2022/06/11 03:24:20;;;;;;;14.90;6.62;;;;;;;21.54;52.51;98787.53;4487955;31;20116;-80
2022/06/11 03:26:47;;;;;;;14.57;7.10;;;;;;;21.53;52.65;98789.37;4487801;31;20506;-79
2022/06/11 03:29:13;;;;;;;12.43;6.93;;;;;;;21.45;52.99;98808.06;4487863;31;20445;-79
2022/06/11 03:31:38;;;;;;;12.02;6.43;;;;;;;21.55;52.89;98802.63;4502057;31;20077;-80
2022/06/11 03:34:04;;;;;;;12.82;6.78;;;;;;;21.71;52.48;98809.97;4502044;31;20088;-79
2022/06/11 03:36:30;;;;;;;12.93;6.35;;;;;;;21.62;52.79;98817.09;4487689;31;20124;-79
2022/06/11 03:38:55;;;;;;;12.25;6.95;;;;;;;21.52;53.12;98811.81;4502137;31;20132;-79
2022/06/11 03:41:21;;;;;;;12.40;6.43;;;;;;;21.56;53.06;98817.72;4503186;31;20102;-79
2022/06/11 03:43:49;;;;;;;12.18;6.65;;;;;;;21.63;52.71;98812.56;4489566;31;20100;-79
2022/06/11 03:46:15;;;;;;;11.98;6.62;;;;;;;21.64;52.87;98816.94;4504114;31;20158;-79
2022/06/11 03:48:41;;;;;;;14.05;6.37;;;;;;;21.67;52.50;98819.31;4489624;31;20092;-79
2022/06/11 03:51:07;;;;;;;11.32;5.90;;;;;;;21.69;52.35;98818.19;4489478;31;20122;-79
2022/06/11 03:53:34;;;;;;;13.30;6.85;;;;;;;21.86;51.81;98812.94;4503977;31;20197;-79
2022/06/11 03:55:59;;;;;;;13.10;6.50;;;;;;;21.71;52.04;98813.50;4489556;31;20096;-79
2022/06/11 03:58:25;;;;;;;12.23;6.30;;;;;;;21.98;51.22;98809.88;4503985;31;20171;-79
2022/06/11 04:03:36;;;;;;;12.35;5.90;;;;;;;22.44;50.00;98806.16;4503904;31;20131;-79
2022/06/11 04:06:02;;;;;;;13.13;6.15;;;;;;;22.65;49.64;98811.97;4503846;31;20375;-79
2022/06/11 04:08:29;;;;;;;12.88;6.45;;;;;;;22.85;48.97;98806.34;4489439;31;20084;-79
2022/06/11 04:10:56;;;;;;;12.50;5.82;;;;;;;22.90;48.84;98806.72;4503529;31;20090;-79
2022/06/11 04:13:23;;;;;;;11.70;6.10;;;;;;;23.08;48.66;98810.19;4489217;31;20104;-79
2022/06/11 04:15:49;;;;;;;11.95;5.87;;;;;;;23.19;48.14;98806.34;4489448;31;20157;-79
2022/06/11 04:18:39;;;;;;;12.10;5.60;;;;;;;23.38;47.43;98799.81;4489184;31;20088;-79
2022/06/11 04:21:08;;;;;;;13.00;5.68;;;;;;;23.60;46.91;98806.41;4480022;31;20383;-79
2022/06/11 04:23:35;;;;;;;12.55;5.87;;;;;;;23.75;46.44;98802.03;4489405;31;20120;-79
2022/06/11 04:26:04;;;;;;;11.20;5.25;;;;;;;23.93;45.61;98803.75;4489274;31;20721;-79
2022/06/11 04:28:32;;;;;;;11.68;5.20;;;;;;;23.94;45.49;98798.19;4489285;31;20077;-79
2022/06/11 04:30:59;;;;;;;10.82;5.55;;;;;;;24.31;44.74;98807.56;4489276;31;20084;-79
2022/06/11 04:33:25;;;;;;;10.77;5.15;;;;;;;24.39;45.25;98805.88;4489259;31;20115;-80
2022/06/11 04:35:51;;;;;;;11.10;5.62;;;;;;;24.71;44.12;98808.50;4489381;31;20100;-79
2022/06/11 04:38:17;;;;;;;10.88;5.40;;;;;;;24.83;43.85;98803.56;4489408;31;20371;-78
2022/06/11 04:40:43;;;;;;;10.75;5.30;;;;;;;24.92;43.86;98807.94;4489294;31;20084;-79
2022/06/11 04:43:09;;;;;;;9.65;4.95;;;;;;;25.14;43.08;98807.31;4503875;31;20157;-79
2022/06/11 04:45:35;;;;;;;11.60;5.50;;;;;;;25.07;43.06;98808.03;4489158;31;20111;-79
2022/06/11 04:48:01;;;;;;;10.32;5.50;;;;;;;25.21;43.01;98817.22;4503563;31;20435;-80
2022/06/11 04:50:26;;;;;;;10.00;5.45;;;;;;;25.05;43.14;98817.28;4489097;31;20080;-79
2022/06/11 04:52:52;;;;;;;10.10;5.50;;;;;;;25.02;43.51;98813.09;4488400;31;20149;-79
2022/06/11 04:55:18;;;;;;;14.32;5.55;;;;;;;25.18;43.23;98828.34;4503454;31;20091;-79
2022/06/11 04:57:44;;;;;;;10.27;5.30;;;;;;;25.15;43.45;98830.56;4489022;31;20098;-77
2022/06/11 05:00:13;;;;;;;10.73;5.80;;;;;;;25.09;43.14;98832.09;4503266;31;20096;-79
2022/06/11 05:02:38;;;;;;;11.02;5.85;;;;;;;25.07;42.96;98832.28;4488957;31;20220;-79
2022/06/11 05:05:04;;;;;;;11.07;5.80;;;;;;;25.09;43.01;98824.88;4503397;31;20427;-79
2022/06/11 05:07:30;;;;;;;11.10;6.20;;;;;;;25.03;43.48;98835.50;4503377;31;20110;-79
2022/06/11 05:09:55;;;;;;;11.05;5.68;;;;;;;25.12;42.54;98843.37;4503308;31;20084;-79
2022/06/11 05:12:20;;;;;;;10.00;5.35;;;;;;;25.20;43.17;98850.56;4503172;31;20084;-80
2022/06/11 05:14:46;;;;;;;11.05;5.72;;;;;;;25.19;42.61;98848.03;4503291;31;20137;-80
2022/06/11 05:17:11;;;;;;;10.35;5.43;;;;;;;24.96;43.08;98850.72;4503198;31;20084;-80
2022/06/11 05:19:37;;;;;;;10.10;5.32;;;;;;;24.85;42.81;98847.34;4503186;31;20412;-79
2022/06/11 05:22:03;;;;;;;11.50;5.40;;;;;;;25.06;43.28;98856.72;4503005;31;20325;-79
2022/06/11 05:24:29;;;;;;;10.68;5.18;;;;;;;25.06;42.50;98849.47;4503116;31;20111;-79
2022/06/11 05:27:02;;;;;;;10.85;5.55;;;;;;;25.22;41.91;98845.88;4503245;31;20072;-79
2022/06/11 05:29:52;;;;;;;9.93;5.05;;;;;;;25.40;42.08;98847.47;4489074;31;20072;-79
2022/06/11 05:32:19;;;;;;;10.80;5.50;;;;;;;25.64;41.96;98841.91;4489360;31;20096;-79
2022/06/11 05:34:45;;;;;;;12.35;5.57;;;;;;;25.83;41.00;98847.88;4488844;31;20100;-79
2022/06/11 05:37:11;;;;;;;10.15;5.60;;;;;;;25.76;41.71;98849.59;4503315;31;20110;-79
2022/06/11 05:39:37;;;;;;;10.43;5.70;;;;;;;25.87;41.55;98847.31;4503093;31;20094;-79
2022/06/11 05:42:03;;;;;;;9.98;5.55;;;;;;;26.02;40.93;98854.66;4488720;31;20122;-79
2022/06/11 05:44:29;;;;;;;11.25;5.60;;;;;;;26.19;40.98;98853.50;4503223;31;20329;-79
2022/06/11 05:46:54;;;;;;;10.68;5.40;;;;;;;26.38;41.08;98854.00;4488763;31;20102;-79
2022/06/11 05:49:26;;;;;;;10.77;5.47;;;;;;;26.41;40.39;98861.75;4503055;31;20068;-80
2022/06/11 05:51:57;;;;;;;9.77;5.20;;;;;;;26.66;39.54;98862.38;4488772;31;20596;-80
2022/06/11 05:54:25;;;;;;;11.38;5.07;;;;;;;26.76;39.20;98853.97;4503302;31;20083;-78
2022/06/11 05:56:51;;;;;;;11.55;5.35;;;;;;;26.65;39.15;98863.38;4503336;31;20155;-79
2022/06/11 05:59:25;;;;;;;11.20;5.53;;;;;;;26.92;39.78;98859.19;4488985;31;20106;-79
2022/06/11 06:01:52;;;;;;;10.88;5.25;;;;;;;27.08;39.05;98858.13;4487384;31;20123;-79
2022/06/11 06:04:17;;;;;;;11.03;5.17;;;;;;;27.17;38.79;98873.25;4473577;32;20108;-78
2022/06/11 06:06:42;;;;;;;9.75;5.15;;;;;;;27.22;38.76;98856.47;4482750;31;20198;-79
2022/06/11 06:09:08;;;;;;;9.85;5.25;;;;;;;27.52;38.93;98859.13;4498911;31;20106;-79
2022/06/11 06:11:33;;;;;;;11.65;5.20;;;;;;;27.70;38.60;98856.84;4473142;32;20481;-79
2022/06/11 06:13:59;;;;;;;9.68;4.68;;;;;;;27.60;37.09;98859.00;4487106;32;20114;-79
2022/06/11 06:16:27;;;;;;;10.90;4.75;;;;;;;27.85;37.55;98856.75;4487042;32;20142;-79
2022/06/11 06:18:53;;;;;;;9.68;4.80;;;;;;;27.85;37.26;98851.34;4472923;32;20076;-79
2022/06/11 06:21:21;;;;;;;10.70;4.70;;;;;;;27.90;36.48;98845.38;4487180;32;20118;-79
2022/06/11 06:23:47;;;;;;;10.18;4.90;;;;;;;27.67;36.81;98840.13;4487087;32;20084;-79
2022/06/11 06:26:13;;;;;;;11.30;5.07;;;;;;;27.72;36.39;98838.53;4472972;32;20075;-79
2022/06/11 06:28:38;;;;;;;11.98;5.50;;;;;;;27.56;37.07;98842.28;4487107;32;20127;-79
2022/06/11 06:31:05;;;;;;;10.50;5.00;;;;;;;27.63;37.02;98848.63;4472680;32;20144;-79
2022/06/11 06:33:32;;;;;;;13.20;6.12;;;;;;;27.65;37.29;98851.16;4487051;32;20096;-79
2022/06/11 06:35:58;;;;;;;10.63;5.10;;;;;;;27.34;38.20;98852.25;4472713;32;20088;-79
2022/06/11 06:38:24;;;;;;;10.63;4.85;;;;;;;27.24;38.21;98854.41;4472769;32;20140;-78
2022/06/11 06:40:49;;;;;;;9.80;4.78;;;;;;;27.51;38.37;98860.16;4486901;32;20156;-79
2022/06/11 06:43:15;;;;;;;11.52;5.35;;;;;;;27.57;38.33;98856.69;4487053;32;20119;-79
2022/06/11 06:45:40;;;;;;;11.50;5.20;;;;;;;27.47;37.90;98865.13;4486908;32;20088;-79
2022/06/11 06:48:06;;;;;;;10.20;5.00;;;;;;;27.44;39.01;98860.06;4472632;32;20106;-79
2022/06/11 06:50:31;;;;;;;11.55;5.18;;;;;;;27.53;37.04;98868.94;4486718;32;20110;-79
2022/06/11 06:52:57;;;;;;;9.57;4.85;;;;;;;27.54;37.88;98868.72;4486847;32;20114;-80
2022/06/11 06:55:22;;;;;;;10.07;5.20;;;;;;;27.53;37.13;98867.06;4486805;32;20080;-80
2022/06/11 06:57:49;;;;;;;9.85;4.97;;;;;;;27.56;37.13;98866.66;4486708;32;20144;-80
2022/06/11 07:00:17;;;;;;;9.35;4.62;;;;;;;27.55;37.38;98869.56;4486685;32;20423;-80
2022/06/11 07:02:43;;;;;;;11.93;5.12;;;;;;;27.61;38.13;98857.97;4487007;32;20112;-80
2022/06/11 07:05:09;;;;;;;9.43;4.93;;;;;;;27.47;38.09;98862.41;4472746;32;20115;-80
2022/06/11 07:07:35;;;;;;;9.80;5.28;;;;;;;27.70;38.35;98862.25;4486949;32;20096;-80
2022/06/11 07:10:02;;;;;;;9.50;4.90;;;;;;;27.78;37.80;98851.28;4486961;32;20100;-79
2022/06/11 07:12:27;;;;;;;10.10;5.05;;;;;;;27.73;38.30;98867.25;4486827;32;20126;-79
2022/06/11 07:14:52;;;;;;;9.60;5.37;;;;;;;27.78;38.17;98853.16;4486247;32;20073;-80
2022/06/11 07:17:18;;;;;;;9.27;4.80;;;;;;;27.82;38.87;98854.44;4486666;32;20095;-79
2022/06/11 07:20:01;;;;;;;10.30;5.10;;;;;;;28.04;36.90;98864.25;4472465;32;20383;-79
2022/06/11 07:22:39;;;;;;;9.60;4.87;;;;;;;28.01;37.70;98861.94;4472645;32;20096;-79
2022/06/11 07:25:06;;;;;;;9.63;4.87;;;;;;;28.09;37.21;98860.16;4472367;32;20099;-79
2022/06/11 07:27:37;;;;;;;10.65;4.72;;;;;;;27.93;37.14;98863.94;4472488;32;20105;-79
2022/06/11 07:30:09;;;;;;;10.52;5.72;;;;;;;27.75;37.65;98865.19;4472464;32;20475;-79
2022/06/11 07:32:38;;;;;;;10.85;5.03;;;;;;;27.81;37.92;98859.00;4472247;32;20101;-79
2022/06/11 07:35:06;;;;;;;11.27;5.50;;;;;;;28.05;38.42;98859.69;4472730;32;20161;-79
2022/06/11 07:37:35;;;;;;;10.05;5.05;;;;;;;28.04;37.85;98858.00;4473890;31;20092;-79
2022/06/11 07:40:01;;;;;;;10.82;4.97;;;;;;;28.36;37.69;98858.50;4493715;31;20728;-81
2022/06/11 07:42:27;;;;;;;9.80;4.22;;;;;;;28.53;37.27;98861.75;4492896;31;20104;-83
2022/06/11 07:44:52;;;;;;;11.82;4.47;;;;;;;28.37;36.77;98858.25;4486153;31;20137;-83
2022/06/11 07:47:53;;;;;;;9.65;4.90;;;;;;;28.47;36.62;98857.91;4486127;31;20107;-81
2022/06/11 07:50:03;;;;;;;9.55;4.35;;;;;;;28.71;36.08;98856.66;4485911;32;20097;-80
2022/06/11 07:52:29;;;;;;;9.13;4.65;;;;;;;28.79;37.00;98864.63;4486084;32;20213;-82
2022/06/11 07:54:55;;;;;;;12.07;4.80;;;;;;;28.49;36.89;98866.72;4486020;31;20088;-81
2022/06/11 07:57:20;;;;;;;10.73;4.28;;;;;;;28.70;36.34;98867.69;4485100;32;20088;-82
2022/06/11 07:59:46;;;;;;;9.38;4.80;;;;;;;28.59;37.54;98875.34;4486214;31;20100;-84
2022/06/11 08:02:11;;;;;;;17.30;5.07;;;;;;;28.59;36.12;98867.22;4480155;31;20134;-85
2022/06/11 08:04:36;;;;;;;9.05;4.40;;;;;;;28.84;36.86;98872.19;4486799;31;20085;-82
2022/06/11 08:07:02;;;;;;;9.63;4.62;;;;;;;28.91;36.41;98870.31;4500963;31;20106;-83
2022/06/11 08:09:28;;;;;;;9.70;4.53;;;;;;;28.91;36.11;98864.06;4479301;31;20127;-83
2022/06/11 08:11:53;;;;;;;9.07;4.43;;;;;;;28.82;35.74;98866.97;4491604;31;20093;-82
2022/06/11 08:14:18;;;;;;;9.70;4.45;;;;;;;28.74;35.58;98866.25;4497247;31;20143;-83
2022/06/11 08:16:44;;;;;;;10.13;4.40;;;;;;;28.30;36.47;98867.38;4487726;31;20420;-82
2022/06/11 08:19:09;;;;;;;9.65;4.68;;;;;;;28.49;36.03;98857.72;4486774;31;20126;-82
2022/06/11 08:21:35;;;;;;;9.73;4.65;;;;;;;28.29;37.69;98871.13;4493320;31;20159;-84
2022/06/11 08:24:00;;;;;;;9.80;4.75;;;;;;;28.28;37.64;98866.75;4495282;31;20137;-82
2022/06/11 08:26:26;;;;;;;10.65;4.93;;;;;;;28.68;37.59;98861.66;4488078;31;20344;-83
2022/06/11 08:28:51;;;;;;;10.88;5.30;;;;;;;28.54;37.36;98858.00;4488080;31;20108;-83
2022/06/11 08:31:17;;;;;;;10.70;4.72;;;;;;;28.50;37.00;98862.97;4493731;31;20127;-84
2022/06/11 08:33:42;;;;;;;9.38;4.53;;;;;;;28.42;37.34;98866.66;4486064;31;20106;-85
2022/06/11 08:36:09;;;;;;;9.45;4.75;;;;;;;28.51;36.60;98864.69;4503179;31;20088;-87
2022/06/11 08:38:34;;;;;;;10.98;4.60;;;;;;;28.44;37.83;98863.75;4489985;31;20341;-83
2022/06/11 08:40:59;;;;;;;10.23;4.57;;;;;;;28.41;37.24;98850.59;4499939;31;20106;-83
2022/06/11 08:43:30;;;;;;;9.95;4.55;;;;;;;28.54;37.49;98858.84;4493290;31;20502;-86
2022/06/11 08:46:02;;;;;;;9.70;4.35;;;;;;;28.50;36.75;98848.56;4488612;31;20122;-84
2022/06/11 08:48:43;;;;;;;9.27;4.35;;;;;;;28.58;35.32;98852.00;4488277;31;20113;-83
2022/06/11 08:51:11;;;;;;;8.65;4.30;;;;;;;28.13;36.38;98864.13;4488361;31;20455;-83
2022/06/11 08:53:38;;;;;;;9.73;4.18;;;;;;;28.11;36.44;98856.19;4494600;31;20176;-85
2022/06/11 08:56:06;;;;;;;9.05;3.92;;;;;;;28.23;36.46;98856.50;4489746;31;20100;-84
2022/06/11 08:58:44;;;;;;;8.48;4.07;;;;;;;28.38;36.35;98842.87;4479768;31;20108;-84
2022/06/11 09:01:28;;;;;;;8.65;4.15;;;;;;;28.36;36.61;98863.91;4481131;31;21546;-86
2022/06/11 09:04:26;;;;;;;8.38;3.75;;;;;;;28.56;35.73;98864.91;4490842;31;20100;-86
2022/06/11 09:07:07;;;;;;;16.45;5.12;;;;;;;28.79;34.51;98855.66;4482674;31;20153;-86
2022/06/11 09:09:51;;;;;;;10.07;4.00;;;;;;;28.99;34.56;98855.75;4488936;31;20867;-84
2022/06/11 09:12:50;;;;;;;8.80;3.72;;;;;;;29.19;33.76;98851.31;4488614;31;20151;-85
2022/06/11 09:15:38;;;;;;;8.82;3.78;;;;;;;29.08;32.52;98851.03;4486885;32;20140;-86
2022/06/11 09:18:21;;;;;;;9.68;4.03;;;;;;;29.01;33.42;98848.25;4493963;31;20080;-85
2022/06/11 09:20:58;;;;;;;10.70;3.85;;;;;;;29.05;34.01;98846.81;4477869;31;20269;-85
2022/06/11 09:23:53;;;;;;;9.45;4.15;;;;;;;29.33;34.09;98848.66;4483300;32;20100;-87
2022/06/11 09:26:48;;;;;;;8.75;4.15;;;;;;;29.21;33.42;98851.13;4498922;31;20139;-87
2022/06/11 09:29:40;;;;;;;10.77;4.18;;;;;;;29.47;33.08;98852.25;4476603;31;20088;-86
2022/06/11 09:32:13;;;;;;;10.27;4.12;;;;;;;29.29;33.29;98850.09;4502286;31;20510;-88
2022/06/11 09:34:50;;;;;;;9.13;4.35;;;;;;;29.54;33.74;98844.97;4487755;31;20175;-89
2022/06/11 09:37:17;;;;;;;9.05;3.92;;;;;;;29.83;33.14;98838.38;4497509;31;20088;-88
2022/06/11 09:39:54;;;;;;;9.35;3.67;;;;;;;30.01;31.81;98842.34;4487570;31;20096;-84
2022/06/11 09:42:49;;;;;;;8.00;3.37;;;;;;;30.20;29.90;98833.34;4488443;31;20095;-88
2022/06/11 09:45:25;;;;;;;8.20;3.55;;;;;;;30.31;29.60;98838.19;4485897;31;20179;-85
2022/06/11 09:48:10;;;;;;;9.25;3.30;;;;;;;30.35;29.22;98834.00;4493392;31;20088;-87
2022/06/11 09:50:49;;;;;;;8.73;3.15;;;;;;;30.46;28.42;98832.53;4491091;31;20096;-87
2022/06/11 09:53:34;;;;;;;9.43;3.62;;;;;;;30.52;28.54;98836.28;4487961;31;20502;-87
2022/06/11 09:56:22;;;;;;;7.90;3.53;;;;;;;30.54;29.13;98836.91;4487545;31;20523;-87
2022/06/11 09:58:53;;;;;;;;;;;;;;;30.57;29.30;98834.59;4437053;32;20154;-86
2022/06/11 10:01:31;;;;;;;7.97;3.33;;;;;;;30.61;28.63;98828.75;4437113;32;19993;-88
2022/06/11 10:04:06;;;;;;;;;;;;;;;30.84;29.26;98829.09;4422937;32;20477;-88
2022/06/11 10:06:40;;;;;;;8.00;3.17;;;;;;;30.83;28.70;98832.00;4424150;32;20034;-89
2022/06/11 10:09:14;;;;;;;9.18;3.47;;;;;;;30.90;29.10;98817.38;4422339;32;20737;-90
2022/06/11 10:12:07;;;;;;;8.93;4.15;;;;;;;30.97;28.26;98825.53;4431389;32;20437;-93
2022/06/11 10:15:02;;;;;;;8.95;4.32;;;;;;;31.00;30.87;98837.84;4436579;32;20113;-92
2022/06/11 10:17:34;;;;;;;9.10;4.30;;;;;;;30.73;32.18;98838.75;4420537;32;20132;-86
2022/06/11 10:20:20;;;;;;;10.63;4.75;;;;;;;30.54;33.22;98845.91;4423219;32;20486;-91
2022/06/11 10:23:13;;;;;;;10.30;4.70;;;;;;;30.09;33.42;98833.97;4438740;32;20141;-82
2022/06/11 10:25:54;;;;;;;9.60;4.70;;;;;;;29.74;34.65;98829.56;4435567;32;20817;-91
2022/06/11 10:28:34;;;;;;;11.25;5.05;;;;;;;29.72;34.90;98833.50;4421430;32;20255;-89
2022/06/11 10:31:04;;;;;;;10.60;4.72;;;;;;;29.87;35.15;98827.94;4435055;32;20123;-94
2022/06/11 10:34:19;;;;;;;11.02;4.87;;;;;;;30.12;34.61;98833.56;4437641;32;20077;-85
2022/06/11 10:36:54;;;;;;;10.18;4.50;;;;;;;30.18;33.71;98821.88;4418161;32;20591;-88
2022/06/11 10:39:29;;;;;;;9.13;4.53;;;;;;;30.18;34.33;98817.25;4412102;32;20110;-90
2022/06/11 10:42:13;;;;;;;9.20;4.60;;;;;;;30.29;33.40;98804.94;4407254;32;20736;-89
2022/06/11 10:44:45;;;;;;;9.63;4.85;;;;;;;30.17;33.65;98817.47;4417525;32;20097;-90
2022/06/11 10:47:18;;;;;;;9.82;5.25;;;;;;;29.87;34.80;98814.34;4405546;32;20210;-92
2022/06/11 10:49:45;;;;;;;8.93;4.65;;;;;;;29.90;34.95;98811.19;4404810;32;20149;-92
2022/06/11 10:52:23;;;;;;;10.15;4.72;;;;;;;29.85;35.43;98821.88;4406066;32;20102;-93
2022/06/11 10:54:48;;;;;;;11.45;4.80;;;;;;;29.47;36.15;98825.09;4422041;32;20449;-86
2022/06/11 10:57:21;;;;;;;10.02;5.55;;;;;;;29.30;36.46;98824.63;4421918;32;20113;-89
2022/06/11 10:59:55;;;;;;;11.45;5.47;;;;;;;29.23;36.46;98823.78;4409356;32;20438;-89
2022/06/11 11:02:29;;;;;;;10.43;5.28;;;;;;;29.13;36.74;98825.00;4409112;32;20153;-91
2022/06/11 11:05:00;;;;;;;10.20;5.37;;;;;;;28.99;37.08;98817.78;4409508;32;20094;-91
2022/06/11 11:07:25;;;;;;;9.43;5.20;;;;;;;29.07;36.97;98812.22;4463429;31;20145;-92
2022/06/11 11:09:58;;;;;;;9.68;5.10;;;;;;;29.13;36.65;98813.28;4494830;31;20103;-89
2022/06/11 11:12:27;;;;;;;10.13;5.47;;;;;;;29.23;36.64;98810.22;4487436;31;20146;-91
2022/06/11 11:15:13;;;;;;;9.38;4.85;;;;;;;29.36;36.48;98808.38;4486735;31;20129;-90
2022/06/11 11:18:16;;;;;;;11.35;5.30;;;;;;;29.54;36.23;98813.22;4487092;31;20135;-92
2022/06/11 11:20:43;;;;;;;9.68;4.43;;;;;;;29.67;36.29;98815.12;4407514;32;20090;-90
2022/06/11 11:23:22;;;;;;;9.13;4.72;;;;;;;29.82;35.60;98806.81;4395987;32;20089;-87
2022/06/11 11:25:53;;;;;;;10.23;4.78;;;;;;;30.04;35.38;98807.44;4421235;32;20239;-92
2022/06/11 11:28:24;;;;;;;10.70;4.80;;;;;;;29.99;35.03;98805.34;4421552;32;20114;-90
2022/06/11 11:31:07;;;;;;;9.38;5.10;;;;;;;29.60;35.74;98796.09;4404937;32;20136;-93
2022/06/11 11:33:37;;;;;;;10.57;5.05;;;;;;;29.32;35.90;98800.84;4418660;32;20058;-92
2022/06/11 11:36:25;;;;;;;10.02;5.07;;;;;;;29.27;36.51;98804.19;4407856;32;20098;-93
2022/06/11 11:39:21;;;;;;;10.02;5.37;;;;;;;29.28;37.12;98802.28;4408380;32;20217;-93
2022/06/11 11:41:49;;;;;;;10.57;5.20;;;;;;;28.96;37.70;98793.81;4421626;32;20170;-91
2022/06/11 11:44:19;;;;;;;9.80;4.90;;;;;;;29.35;37.26;98789.59;4420501;32;20123;-88
2022/06/11 11:46:48;;;;;;;9.52;4.72;;;;;;;29.65;35.92;98786.50;4407753;32;20138;-92
2022/06/11 11:49:25;;;;;;;9.05;4.60;;;;;;;29.54;36.43;98788.78;4406162;32;20146;-87
2022/06/11 11:51:51;;;;;;;11.43;4.60;;;;;;;29.73;35.45;98783.63;4401814;32;20274;-87
2022/06/11 11:54:21;;;;;;;10.63;4.62;;;;;;;30.10;35.07;98776.72;4406109;32;20170;-88